Time;durP1;ratioP1;P1;durP2;ratioP2;P2;SDS_P1;SDS_P2;PMS_P1;PMS_P2;Temp;Humidity;BMP_temperature;BMP_pressure;BME280_temperature;BME280_humidity;BME280_pressure;Samples;Min_cycle;Max_cycle;Signal;HPM_P1;HPM_P2
2022/08/28 00:02:08;;;;;;;6.47;1.85;;;23.80;61.90;;;;;;5011259;28;20029;-58
2022/08/28 00:04:34;;;;;;;4.75;1.83;;;23.80;62.00;;;;;;5028448;28;20026;-58
2022/08/28 00:07:00;;;;;;;5.90;1.98;;;23.70;61.90;;;;;;5030242;28;20037;-57
2022/08/28 00:09:26;;;;;;;5.53;2.00;;;23.70;61.80;;;;;;5040188;28;20032;-57
2022/08/28 00:11:52;;;;;;;6.10;1.92;;;23.80;61.80;;;;;;5028197;28;20026;-57
2022/08/28 00:14:19;;;;;;;3.17;1.85;;;23.70;61.90;;;;;;5030588;28;20117;-57
2022/08/28 00:16:46;;;;;;;4.95;1.98;;;23.80;61.80;;;;;;5026268;28;20076;-57
2022/08/28 00:19:13;;;;;;;6.07;1.90;;;23.80;61.80;;;;;;5025953;28;20080;-57
2022/08/28 00:21:38;;;;;;;6.95;1.95;;;23.70;61.70;;;;;;5027624;28;20041;-57
2022/08/28 00:24:04;;;;;;;4.75;1.75;;;23.70;61.70;;;;;;5027950;28;20095;-57
2022/08/28 00:29:14;;;;;;;5.20;1.90;;;23.70;61.70;;;;;;5029796;28;20049;-57
2022/08/28 00:31:40;;;;;;;5.25;1.90;;;23.70;61.70;;;;;;5026624;28;20029;-57
2022/08/28 00:34:06;;;;;;;5.78;1.70;;;23.70;61.70;;;;;;5029073;28;20033;-57
2022/08/28 00:36:32;;;;;;;5.47;1.90;;;23.70;61.70;;;;;;5027665;28;20045;-57
2022/08/28 00:39:01;;;;;;;4.85;2.00;;;23.70;61.70;;;;;;5027313;28;20041;-57
2022/08/28 00:41:30;;;;;;;5.00;1.75;;;23.70;61.70;;;;;;5028187;28;20258;-57
2022/08/28 00:44:35;;;;;;;5.95;2.05;;;23.60;61.70;;;;;;5024423;28;20033;-57
2022/08/28 00:47:01;;;;;;;4.78;1.80;;;23.70;61.70;;;;;;4987267;28;20058;-57
2022/08/28 00:49:29;;;;;;;5.78;1.83;;;23.70;61.80;;;;;;4988201;28;20081;-57
2022/08/28 00:52:07;;;;;;;5.30;1.75;;;23.70;61.70;;;;;;4971388;28;20133;-57
2022/08/28 00:54:59;;;;;;;5.32;1.88;;;23.60;61.70;;;;;;4971157;28;20069;-57
2022/08/28 00:57:35;;;;;;;3.70;1.80;;;23.60;61.70;;;;;;4986389;28;20027;-57
2022/08/28 01:00:01;;;;;;;6.93;1.80;;;23.60;61.80;;;;;;4968743;28;20125;-57
2022/08/28 01:02:27;;;;;;;4.72;1.90;;;23.60;61.80;;;;;;4986748;28;20390;-57
2022/08/28 01:04:52;;;;;;;5.75;2.00;;;23.60;61.80;;;;;;4988080;28;20411;-57
2022/08/28 01:07:18;;;;;;;4.32;1.70;;;23.60;61.80;;;;;;4986408;28;20061;-58
2022/08/28 01:09:47;;;;;;;4.22;1.90;;;23.60;61.80;;;;;;4969473;28;20026;-57
2022/08/28 01:12:18;;;;;;;5.28;1.80;;;23.60;61.80;;;;;;4983620;28;20399;-57
2022/08/28 01:14:46;;;;;;;5.22;1.67;;;23.60;61.80;;;;;;4969906;28;20138;-57
2022/08/28 01:17:13;;;;;;;4.13;1.60;;;23.60;61.90;;;;;;4981368;28;20056;-57
2022/08/28 01:19:42;;;;;;;4.00;1.75;;;23.60;61.80;;;;;;5026355;28;20034;-57
2022/08/28 01:22:21;;;;;;;3.65;1.67;;;23.60;61.80;;;;;;5026935;28;20456;-57
2022/08/28 01:24:48;;;;;;;4.93;1.80;;;23.60;61.80;;;;;;5026924;28;20026;-57
2022/08/28 01:27:14;;;;;;;3.45;1.52;;;23.60;61.80;;;;;;5011104;28;20652;-57
2022/08/28 01:29:39;;;;;;;4.75;1.95;;;23.60;61.80;;;;;;5026496;28;20026;-57
2022/08/28 01:32:05;;;;;;;5.80;1.88;;;23.60;62.00;;;;;;5025620;28;20032;-57
2022/08/28 01:34:31;;;;;;;3.80;1.58;;;23.50;61.80;;;;;;5026686;28;20096;-57
2022/08/28 01:36:57;;;;;;;4.68;1.67;;;23.60;61.90;;;;;;5027394;28;20056;-57
2022/08/28 01:39:23;;;;;;;5.32;1.75;;;23.50;61.80;;;;;;5026006;28;20490;-57
2022/08/28 01:41:50;;;;;;;4.20;1.77;;;23.50;61.80;;;;;;5029072;28;20025;-57
2022/08/28 01:44:17;;;;;;;4.10;1.70;;;23.50;61.80;;;;;;5025907;28;20025;-57
2022/08/28 01:46:43;;;;;;;3.83;1.80;;;23.50;61.90;;;;;;5027196;28;20018;-57
2022/08/28 01:49:10;;;;;;;3.63;1.70;;;23.50;61.90;;;;;;5025238;28;20021;-57
2022/08/28 01:51:37;;;;;;;4.35;1.70;;;23.50;61.90;;;;;;5024109;28;20087;-57
2022/08/28 01:54:03;;;;;;;6.70;2.00;;;23.50;61.90;;;;;;5026028;28;20528;-57
2022/08/28 01:56:28;;;;;;;4.85;1.70;;;23.50;61.90;;;;;;5026788;28;20055;-57
2022/08/28 01:58:54;;;;;;;4.53;1.88;;;23.50;61.90;;;;;;5027728;28;20443;-57
2022/08/28 02:01:20;;;;;;;4.25;1.70;;;23.50;62.00;;;;;;5025447;28;20570;-57
2022/08/28 02:03:46;;;;;;;5.25;1.77;;;23.50;62.00;;;;;;5026221;28;20029;-57
2022/08/28 02:06:12;;;;;;;3.80;1.63;;;23.50;61.90;;;;;;5027529;28;20029;-57
2022/08/28 02:08:38;;;;;;;4.85;1.70;;;23.50;62.00;;;;;;5024557;28;20045;-57
2022/08/28 02:11:05;;;;;;;5.45;1.60;;;23.50;62.00;;;;;;5027213;28;20105;-57
2022/08/28 02:13:31;;;;;;;3.72;1.65;;;23.50;62.00;;;;;;5025540;28;20033;-56
2022/08/28 02:15:56;;;;;;;5.50;1.70;;;23.50;62.00;;;;;;5025598;28;20543;-57
2022/08/28 02:18:23;;;;;;;4.35;1.85;;;23.50;62.00;;;;;;5026817;28;20033;-57
2022/08/28 02:20:49;;;;;;;2.95;1.70;;;23.50;62.00;;;;;;5025708;28;20037;-57
2022/08/28 02:23:15;;;;;;;4.80;1.85;;;23.40;62.00;;;;;;5023769;28;20025;-57
2022/08/28 02:25:40;;;;;;;3.45;1.70;;;23.40;62.00;;;;;;5026009;28;20034;-57
2022/08/28 02:28:06;;;;;;;4.65;1.70;;;23.40;62.00;;;;;;5026744;28;20017;-57
2022/08/28 02:30:32;;;;;;;3.85;1.70;;;23.40;62.10;;;;;;5025062;28;20169;-57
2022/08/28 02:32:58;;;;;;;4.95;2.00;;;23.40;62.00;;;;;;5025375;28;20490;-57
2022/08/28 02:35:23;;;;;;;3.33;1.67;;;23.40;62.00;;;;;;5025843;28;20036;-57
2022/08/28 02:37:49;;;;;;;3.65;1.60;;;23.40;62.00;;;;;;5025653;28;20033;-57
2022/08/28 02:40:16;;;;;;;5.70;1.98;;;23.40;62.10;;;;;;5025620;28;20044;-57
2022/08/28 02:42:42;;;;;;;3.25;1.60;;;23.40;62.00;;;;;;5027319;28;20537;-57
2022/08/28 02:45:10;;;;;;;2.85;1.80;;;23.40;62.00;;;;;;5026313;28;20045;-57
2022/08/28 02:47:39;;;;;;;2.97;1.70;;;23.30;62.00;;;;;;5027733;28;20026;-57
2022/08/28 02:50:06;;;;;;;3.65;1.80;;;23.30;62.10;;;;;;5023433;28;20033;-57
2022/08/28 02:52:35;;;;;;;3.08;1.67;;;23.30;62.10;;;;;;5027000;28;20143;-57
2022/08/28 02:55:01;;;;;;;4.65;1.80;;;23.30;62.10;;;;;;5024335;28;20107;-57
2022/08/28 02:57:29;;;;;;;1.95;1.55;;;23.30;62.10;;;;;;5024013;28;20080;-57
2022/08/28 02:59:55;;;;;;;4.45;1.77;;;23.30;62.10;;;;;;5025381;28;20049;-57
2022/08/28 03:02:21;;;;;;;3.50;1.50;;;23.30;62.10;;;;;;5024999;28;20033;-57
2022/08/28 03:04:47;;;;;;;4.53;1.65;;;23.30;62.10;;;;;;5026629;28;20033;-57
2022/08/28 03:07:14;;;;;;;4.63;1.70;;;23.30;62.10;;;;;;5024792;28;20029;-57
2022/08/28 03:09:40;;;;;;;3.75;1.70;;;23.30;62.10;;;;;;5026492;28;20053;-57
2022/08/28 03:12:06;;;;;;;2.53;1.65;;;23.30;62.10;;;;;;5022631;28;20030;-57
2022/08/28 03:14:32;;;;;;;2.83;1.52;;;23.30;62.10;;;;;;5026293;28;20029;-57
2022/08/28 03:16:58;;;;;;;3.97;1.77;;;23.30;62.20;;;;;;5026128;28;20017;-57
2022/08/28 03:19:24;;;;;;;3.50;1.70;;;23.30;62.20;;;;;;5021199;28;20041;-57
2022/08/28 03:21:50;;;;;;;4.88;1.83;;;23.30;62.20;;;;;;5025260;28;20029;-57
2022/08/28 03:24:15;;;;;;;3.78;1.65;;;23.30;62.20;;;;;;5025103;28;20026;-57
2022/08/28 03:26:41;;;;;;;4.53;1.80;;;23.30;62.20;;;;;;5024489;28;20029;-57
2022/08/28 03:29:06;;;;;;;3.00;1.50;;;23.20;62.20;;;;;;5023630;28;20532;-57
2022/08/28 03:31:34;;;;;;;2.88;1.40;;;23.30;62.20;;;;;;5025698;28;20409;-57
2022/08/28 03:34:00;;;;;;;3.88;1.50;;;23.30;62.20;;;;;;5025088;28;20064;-57
2022/08/28 03:36:27;;;;;;;3.83;1.70;;;23.20;62.20;;;;;;5022918;28;20058;-57
2022/08/28 03:38:53;;;;;;;3.67;1.65;;;23.20;62.20;;;;;;5024750;28;20594;-57
2022/08/28 03:41:20;;;;;;;4.22;1.50;;;23.20;62.20;;;;;;5024206;28;20044;-57
2022/08/28 03:43:46;;;;;;;3.67;1.70;;;23.20;62.20;;;;;;5027004;28;20018;-57
2022/08/28 03:46:16;;;;;;;3.78;1.67;;;23.20;62.20;;;;;;5024164;28;20025;-57
2022/08/28 03:48:42;;;;;;;3.13;1.75;;;23.20;62.30;;;;;;5023868;28;20612;-57
2022/08/28 03:51:14;;;;;;;3.55;1.60;;;23.20;62.20;;;;;;5022217;28;20041;-57
2022/08/28 03:53:40;;;;;;;3.92;1.70;;;23.20;62.30;;;;;;5023870;28;20046;-58
2022/08/28 03:56:07;;;;;;;3.30;1.67;;;23.20;62.20;;;;;;5023403;28;20135;-58
2022/08/28 03:58:33;;;;;;;2.75;1.45;;;23.20;62.30;;;;;;5020678;28;20452;-56
2022/08/28 04:00:59;;;;;;;3.75;1.90;;;23.20;62.30;;;;;;5027752;28;20037;-57
2022/08/28 04:03:24;;;;;;;3.92;1.50;;;23.20;63.40;;;;;;5028064;28;20034;-57
2022/08/28 04:05:50;;;;;;;3.85;1.73;;;23.20;62.30;;;;;;5025798;28;20091;-57
2022/08/28 04:08:17;;;;;;;3.72;1.70;;;23.20;62.30;;;;;;5025976;28;20105;-57
2022/08/28 04:10:43;;;;;;;4.65;1.80;;;23.20;62.30;;;;;;5028609;28;20053;-57
2022/08/28 04:13:09;;;;;;;2.88;1.60;;;23.20;62.40;;;;;;5028343;28;20034;-57
2022/08/28 04:15:35;;;;;;;3.90;1.38;;;23.20;62.30;;;;;;5023959;28;20095;-57
2022/08/28 04:18:00;;;;;;;3.17;1.60;;;23.20;62.50;;;;;;5033847;28;20460;-57
2022/08/28 04:20:27;;;;;;;3.58;1.63;;;23.20;62.50;;;;;;5027336;28;20654;-57
2022/08/28 04:23:00;;;;;;;3.92;1.63;;;23.20;62.40;;;;;;5028615;28;20480;-56
2022/08/28 04:25:25;;;;;;;6.30;1.90;;;23.20;62.40;;;;;;5028781;28;20038;-57
2022/08/28 04:27:51;;;;;;;2.88;1.52;;;23.10;62.40;;;;;;5027994;28;20434;-57
2022/08/28 04:30:17;;;;;;;3.70;1.50;;;23.10;62.40;;;;;;5027570;28;20037;-57
2022/08/28 04:32:43;;;;;;;4.15;1.75;;;23.10;62.40;;;;;;5028729;28;20033;-56
2022/08/28 04:35:09;;;;;;;3.35;1.77;;;23.10;62.40;;;;;;5030671;28;20464;-56
2022/08/28 04:37:35;;;;;;;3.78;1.67;;;23.10;62.40;;;;;;5026798;28;20033;-57
2022/08/28 04:40:03;;;;;;;3.20;1.50;;;23.10;62.50;;;;;;5030332;28;20410;-56
2022/08/28 04:42:30;;;;;;;4.07;1.50;;;23.10;62.60;;;;;;5028946;28;20060;-58
2022/08/28 04:44:58;;;;;;;2.58;1.60;;;23.10;62.60;;;;;;5031526;28;20033;-57
2022/08/28 04:47:26;;;;;;;3.00;1.60;;;23.10;62.70;;;;;;5026413;28;20033;-57
2022/08/28 04:49:52;;;;;;;3.80;1.67;;;23.10;62.60;;;;;;5032014;28;20041;-57
2022/08/28 04:52:18;;;;;;;4.25;1.77;;;23.10;62.70;;;;;;5028132;28;20033;-56
2022/08/28 04:54:44;;;;;;;2.78;1.50;;;23.10;63.10;;;;;;5011882;28;20045;-58
2022/08/28 04:57:09;;;;;;;1.98;1.55;;;23.10;63.10;;;;;;5027294;28;21931;-57
2022/08/28 04:59:35;;;;;;;3.78;1.60;;;23.20;62.90;;;;;;5032255;28;20050;-58
2022/08/28 05:02:01;;;;;;;2.10;1.48;;;23.20;63.10;;;;;;5027749;28;20025;-58
2022/08/28 05:04:27;;;;;;;3.45;1.50;;;23.20;63.10;;;;;;5030160;28;20449;-58
2022/08/28 05:06:55;;;;;;;3.65;1.65;;;23.10;63.10;;;;;;5028140;28;20163;-58
2022/08/28 05:09:20;;;;;;;3.13;1.50;;;23.20;63.20;;;;;;5026825;28;20037;-58
2022/08/28 05:11:47;;;;;;;2.65;1.70;;;23.20;63.20;;;;;;5028052;28;20033;-58
2022/08/28 05:14:13;;;;;;;3.67;1.70;;;23.10;63.10;;;;;;5026415;28;20120;-57
2022/08/28 05:16:46;;;;;;;3.75;1.60;;;23.10;63.10;;;;;;5027888;28;20058;-58
2022/08/28 05:19:12;;;;;;;4.10;1.77;;;23.10;63.20;;;;;;5024533;28;20045;-58
2022/08/28 05:21:38;;;;;;;2.33;1.58;;;23.10;63.10;;;;;;5027934;28;20179;-58
2022/08/28 05:24:05;;;;;;;3.35;1.60;;;23.20;63.20;;;;;;5026247;28;20537;-58
2022/08/28 05:26:31;;;;;;;3.63;1.60;;;23.20;63.00;;;;;;5029355;28;20049;-58
2022/08/28 05:28:57;;;;;;;3.35;1.60;;;23.10;63.10;;;;;;5022992;28;20371;-58
2022/08/28 05:31:23;;;;;;;2.88;1.40;;;23.10;63.10;;;;;;5027577;28;20027;-58
2022/08/28 05:33:50;;;;;;;3.88;1.58;;;23.10;63.10;;;;;;5030193;28;20021;-58
2022/08/28 05:36:16;;;;;;;3.85;1.70;;;23.10;63.10;;;;;;5026348;28;20025;-58
2022/08/28 05:38:42;;;;;;;5.15;1.92;;;23.10;63.10;;;;;;5028830;28;20096;-57
2022/08/28 05:41:07;;;;;;;4.32;1.70;;;23.10;63.10;;;;;;5025116;28;20034;-58
2022/08/28 05:43:33;;;;;;;4.15;1.50;;;23.10;63.10;;;;;;5025675;28;20482;-58
2022/08/28 05:46:06;;;;;;;2.17;1.40;;;23.10;63.10;;;;;;5026209;28;20018;-58
2022/08/28 05:48:31;;;;;;;2.95;1.35;;;23.10;63.10;;;;;;5030786;28;20029;-57
2022/08/28 05:51:02;;;;;;;2.58;1.42;;;23.10;63.20;;;;;;5025881;28;20036;-57
2022/08/28 05:53:28;;;;;;;2.88;1.50;;;23.10;63.20;;;;;;5029328;28;20100;-58
2022/08/28 05:55:54;;;;;;;2.95;1.60;;;23.10;63.10;;;;;;5030322;28;20068;-58
2022/08/28 05:58:28;;;;;;;3.42;1.60;;;23.10;63.10;;;;;;5026854;28;20095;-58
2022/08/28 06:00:55;;;;;;;;;;;23.00;63.10;;;;;;5029691;28;20029;-58
2022/08/28 06:03:21;;;;;;;2.03;1.38;;;23.00;63.10;;;;;;5026677;28;20671;-58
2022/08/28 06:05:53;;;;;;;4.60;1.60;;;23.00;63.10;;;;;;5031940;28;20032;-57
2022/08/28 06:08:20;;;;;;;2.53;1.35;;;23.00;63.10;;;;;;5026303;28;20079;-57
2022/08/28 06:10:45;;;;;;;3.60;1.70;;;23.00;63.10;;;;;;5027312;28;20029;-57
2022/08/28 06:13:11;;;;;;;2.42;1.40;;;23.00;63.10;;;;;;5029781;28;20029;-58
2022/08/28 06:15:41;;;;;;;4.28;1.50;;;23.00;64.10;;;;;;5030434;28;20037;-57
2022/08/28 06:18:07;;;;;;;3.00;1.70;;;23.00;63.10;;;;;;5024124;28;20033;-57
2022/08/28 06:20:42;;;;;;;3.45;1.70;;;23.00;63.10;;;;;;5030381;28;20059;-57
2022/08/28 06:23:12;;;;;;;2.85;1.60;;;23.00;63.10;;;;;;5027142;28;20073;-57
2022/08/28 06:25:38;;;;;;;4.38;1.58;;;23.00;63.10;;;;;;5024959;28;20701;-57
2022/08/28 06:28:05;;;;;;;4.50;1.73;;;23.00;63.10;;;;;;5029290;28;20064;-57
2022/08/28 06:30:30;;;;;;;4.15;1.63;;;23.00;63.10;;;;;;5028737;28;20703;-58
2022/08/28 06:32:56;;;;;;;4.63;1.65;;;23.00;63.40;;;;;;5027131;28;20071;-58
2022/08/28 06:35:22;;;;;;;3.05;1.52;;;23.00;63.10;;;;;;5025518;28;20028;-58
2022/08/28 06:37:48;;;;;;;2.40;1.40;;;23.00;63.10;;;;;;5028426;28;20104;-58
2022/08/28 06:40:14;;;;;;;3.30;1.45;;;23.00;63.10;;;;;;5026307;28;20033;-58
2022/08/28 06:42:39;;;;;;;2.35;1.58;;;23.00;63.10;;;;;;5027992;28;20473;-57
2022/08/28 06:45:06;;;;;;;2.88;1.60;;;23.00;63.10;;;;;;5024969;28;20025;-57
2022/08/28 06:47:31;;;;;;;2.58;1.50;;;22.90;63.00;;;;;;5026659;28;20105;-57
2022/08/28 06:49:57;;;;;;;2.78;1.50;;;23.00;63.10;;;;;;5023640;28;20104;-57
2022/08/28 06:52:22;;;;;;;3.00;1.52;;;23.00;63.10;;;;;;5026768;28;20025;-57
2022/08/28 06:54:48;;;;;;;2.35;1.42;;;22.90;63.00;;;;;;5027261;28;20040;-57
2022/08/28 06:57:14;;;;;;;2.85;1.40;;;22.90;63.00;;;;;;5026956;28;20029;-57
2022/08/28 06:59:39;;;;;;;3.42;1.60;;;22.90;63.00;;;;;;5031636;28;20041;-58
2022/08/28 07:02:05;;;;;;;2.03;1.40;;;23.00;63.10;;;;;;5028975;28;20021;-58
2022/08/28 07:04:31;;;;;;;3.97;1.63;;;22.90;64.10;;;;;;5024622;28;20481;-57
2022/08/28 07:06:57;;;;;;;3.25;1.50;;;22.90;63.00;;;;;;5027605;28;20511;-57
2022/08/28 07:09:23;;;;;;;3.70;1.60;;;22.90;63.00;;;;;;5025156;28;20075;-57
2022/08/28 07:11:49;;;;;;;2.00;1.45;;;22.90;63.10;;;;;;5025454;28;20021;-57
2022/08/28 07:14:15;;;;;;;2.33;1.40;;;22.90;63.00;;;;;;5026145;28;20041;-57
2022/08/28 07:16:41;;;;;;;2.65;1.50;;;22.90;63.00;;;;;;5027748;28;20036;-57
2022/08/28 07:19:07;;;;;;;4.68;1.60;;;22.90;63.00;;;;;;5029231;28;20041;-58
2022/08/28 07:21:33;;;;;;;2.97;1.55;;;22.90;63.10;;;;;;5026337;28;20041;-57
2022/08/28 07:23:59;;;;;;;3.72;1.52;;;22.90;63.20;;;;;;5022042;28;20018;-57
2022/08/28 07:26:25;;;;;;;2.08;1.55;;;22.90;63.00;;;;;;5026376;28;20490;-57
2022/08/28 07:28:52;;;;;;;3.40;1.70;;;22.90;63.10;;;;;;5027330;28;20393;-57
2022/08/28 07:31:19;;;;;;;2.00;1.40;;;22.90;63.00;;;;;;5025481;28;20026;-58
2022/08/28 07:33:45;;;;;;;3.00;1.45;;;22.90;63.00;;;;;;5029178;28;20025;-58
2022/08/28 07:36:12;;;;;;;2.28;1.50;;;22.90;63.20;;;;;;5025931;28;20623;-58
2022/08/28 07:38:38;;;;;;;3.95;1.50;;;22.90;63.20;;;;;;5025842;28;20064;-58
2022/08/28 07:41:12;;;;;;;1.85;1.38;;;22.90;63.20;;;;;;5027291;28;20064;-58
2022/08/28 07:46:22;;;;;;;3.72;1.55;;;22.90;63.10;;;;;;5027586;28;20094;-57
2022/08/28 07:48:49;;;;;;;3.13;1.60;;;22.90;63.20;;;;;;5028147;28;20037;-58
2022/08/28 07:51:14;;;;;;;2.65;1.50;;;22.90;63.20;;;;;;5026412;28;20112;-58
2022/08/28 07:53:40;;;;;;;3.72;1.70;;;22.90;63.20;;;;;;5028371;28;20124;-58
2022/08/28 07:56:06;;;;;;;4.95;1.80;;;23.00;63.30;;;;;;5029698;28;20037;-58
2022/08/28 07:58:32;;;;;;;5.97;2.10;;;23.00;63.10;;;;;;5031496;28;20063;-58
2022/08/28 08:00:58;;;;;;;4.45;1.73;;;23.00;63.30;;;;;;5012718;28;20025;-58
2022/08/28 08:03:24;;;;;;;5.20;1.70;;;23.00;63.10;;;;;;5026151;28;20028;-58
2022/08/28 08:05:57;;;;;;;4.30;1.60;;;23.00;63.20;;;;;;5031381;28;20025;-58
2022/08/28 08:08:23;;;;;;;5.07;1.67;;;23.00;63.10;;;;;;5028219;28;20033;-58
2022/08/28 08:10:59;;;;;;;7.68;1.90;;;23.10;63.10;;;;;;5025941;28;20504;-58
2022/08/28 08:13:27;;;;;;;6.72;1.80;;;23.10;63.50;;;;;;5026744;28;20030;-58
2022/08/28 08:15:53;;;;;;;5.50;1.90;;;23.10;63.30;;;;;;5031045;28;20573;-58
2022/08/28 08:18:18;;;;;;;6.82;2.10;;;23.10;63.20;;;;;;5031221;28;20117;-58
2022/08/28 08:20:44;;;;;;;4.93;2.15;;;23.10;63.40;;;;;;5031784;28;20658;-58
2022/08/28 08:23:10;;;;;;;5.53;2.10;;;23.10;63.30;;;;;;5028813;28;20030;-58
2022/08/28 08:25:35;;;;;;;9.18;2.22;;;23.20;63.30;;;;;;5028603;28;20053;-58
2022/08/28 08:28:02;;;;;;;6.30;1.88;;;23.20;63.20;;;;;;5028853;28;20025;-58
2022/08/28 08:30:28;;;;;;;5.78;2.00;;;23.20;63.20;;;;;;5027172;28;20061;-58
2022/08/28 08:32:54;;;;;;;7.32;2.03;;;23.20;63.30;;;;;;5031509;28;20057;-58
2022/08/28 08:35:20;;;;;;;7.90;2.20;;;23.20;63.20;;;;;;5024896;28;20036;-58
2022/08/28 08:37:46;;;;;;;7.50;2.15;;;23.20;63.20;;;;;;5024684;28;20064;-58
2022/08/28 08:40:17;;;;;;;7.68;2.10;;;23.20;63.20;;;;;;5026098;28;20038;-58
2022/08/28 08:42:44;;;;;;;8.00;2.38;;;23.20;63.20;;;;;;5008862;28;20030;-58
2022/08/28 08:45:10;;;;;;;8.75;2.45;;;23.30;63.30;;;;;;5025380;28;20025;-58
2022/08/28 08:47:52;;;;;;;8.73;2.28;;;23.20;63.40;;;;;;5024894;28;20079;-58
2022/08/28 08:50:27;;;;;;;8.50;2.80;;;23.20;63.40;;;;;;5020532;28;20077;-57
2022/08/28 08:53:11;;;;;;;;;;;23.20;63.20;;;;;;5025818;28;20123;-57
2022/08/28 08:55:50;;;;;;;5.68;1.98;;;23.20;63.30;;;;;;5028577;28;19927;-57
2022/08/28 08:58:41;;;;;;;7.28;2.38;;;23.30;63.20;;;;;;5028065;28;20095;-58
2022/08/28 09:01:30;;;;;;;7.30;2.10;;;23.30;63.20;;;;;;5023687;28;20037;-57
2022/08/28 09:04:33;;;;;;;8.23;2.60;;;23.30;63.30;;;;;;5026921;28;20059;-57
2022/08/28 09:07:19;;;;;;;9.18;2.58;;;23.30;63.30;;;;;;5024408;28;20038;-57
2022/08/28 09:09:49;;;;;;;8.73;2.50;;;23.30;63.30;;;;;;5026403;28;20567;-57
2022/08/28 09:12:21;;;;;;;8.32;2.38;;;23.30;63.50;;;;;;5026351;28;20486;-57
2022/08/28 09:15:07;;;;;;;7.60;2.47;;;23.30;63.60;;;;;;5028034;28;20100;-57
2022/08/28 09:17:52;;;;;;;6.88;2.33;;;23.30;63.60;;;;;;5028932;28;20060;-58
2022/08/28 09:20:20;;;;;;;8.38;2.45;;;23.30;63.40;;;;;;5040540;28;20068;-57
2022/08/28 09:22:47;;;;;;;10.90;2.65;;;23.40;63.30;;;;;;5025203;28;20026;-57
2022/08/28 09:25:46;;;;;;;8.15;2.20;;;23.30;63.20;;;;;;5026215;28;20171;-57
2022/08/28 09:28:33;;;;;;;7.13;2.53;;;23.40;63.50;;;;;;5024964;28;20037;-58
2022/08/28 09:31:03;;;;;;;7.13;2.53;;;23.40;63.30;;;;;;5054187;28;20100;-57
2022/08/28 09:33:46;;;;;;;8.45;2.47;;;23.40;63.40;;;;;;5026139;28;20030;-57
2022/08/28 09:36:35;;;;;;;8.00;2.22;;;23.40;63.30;;;;;;5024355;28;20067;-58
2022/08/28 09:39:11;;;;;;;7.78;2.47;;;23.40;63.30;;;;;;5017667;28;20036;-57
2022/08/28 09:45:08;;;;;;;5.10;2.10;;;23.50;63.40;;;;;;5020310;28;20443;-57
2022/08/28 09:47:53;;;;;;;9.82;2.50;;;23.50;63.30;;;;;;5022964;28;20030;-58
2022/08/28 09:50:42;;;;;;;;;;;23.50;63.30;;;;;;5022041;28;20160;-58
2022/08/28 09:53:08;;;;;;;9.32;2.45;;;23.50;62.00;;;;;;5022549;28;19971;-58
2022/08/28 09:55:49;;;;;;;8.80;2.25;;;23.50;62.00;;;;;;5026845;28;20454;-58
2022/08/28 09:58:15;;;;;;;8.63;2.35;;;23.50;62.50;;;;;;5025764;28;20490;-57
2022/08/28 10:00:45;;;;;;;9.63;2.28;;;23.50;62.30;;;;;;5023930;28;20084;-59
2022/08/28 10:03:32;;;;;;;9.10;2.70;;;23.50;60.90;;;;;;5025051;28;20025;-58
2022/08/28 10:06:12;;;;;;;9.43;2.50;;;23.50;61.10;;;;;;5025823;28;20104;-58
2022/08/28 10:09:07;;;;;;;6.82;2.28;;;23.50;60.60;;;;;;5012535;28;20519;-58
2022/08/28 10:11:55;;;;;;;9.80;2.17;;;23.50;60.30;;;;;;5019377;28;20592;-59
2022/08/28 10:14:30;;;;;;;8.85;2.65;;;23.50;60.40;;;;;;5023746;28;20021;-57
2022/08/28 10:17:02;;;;;;;9.07;2.72;;;23.50;60.50;;;;;;5026412;28;20033;-58
2022/08/28 10:19:49;;;;;;;6.78;2.53;;;23.50;60.40;;;;;;5020972;28;20540;-59
2022/08/28 10:22:32;;;;;;;8.77;2.35;;;23.50;61.30;;;;;;5021657;28;20021;-58
2022/08/28 10:25:29;;;;;;;11.38;2.70;;;23.60;61.10;;;;;;5023547;28;20030;-58
2022/08/28 10:28:10;;;;;;;8.63;2.47;;;23.60;62.00;;;;;;5007030;28;20394;-58
2022/08/28 10:30:53;;;;;;;7.35;2.40;;;23.60;60.50;;;;;;5025520;28;20037;-58
2022/08/28 10:33:18;;;;;;;9.45;2.35;;;23.60;60.50;;;;;;5018709;28;20070;-58
2022/08/28 10:36:09;;;;;;;8.40;2.25;;;23.70;60.10;;;;;;5023583;28;20969;-58
2022/08/28 10:38:43;;;;;;;7.72;2.08;;;23.60;59.90;;;;;;5002948;28;20017;-58
2022/08/28 10:41:11;;;;;;;7.93;2.15;;;23.70;59.80;;;;;;5006284;28;20032;-58
2022/08/28 10:43:47;;;;;;;7.82;2.10;;;23.60;59.10;;;;;;5035707;28;20409;-58
2022/08/28 10:46:13;;;;;;;6.75;1.90;;;23.70;59.40;;;;;;5019944;28;20383;-58
2022/08/28 10:48:45;;;;;;;7.18;2.03;;;23.70;58.60;;;;;;5020066;28;20025;-58
2022/08/28 10:51:44;;;;;;;9.05;2.28;;;23.70;58.50;;;;;;5049135;28;20014;-57
2022/08/28 10:54:32;;;;;;;6.30;2.05;;;23.70;58.50;;;;;;5018799;28;20045;-58
2022/08/28 10:57:13;;;;;;;9.18;2.20;;;23.70;57.80;;;;;;5016844;28;20034;-57
2022/08/28 10:59:38;;;;;;;9.85;2.22;;;23.80;57.80;;;;;;5023493;28;20038;-58
2022/08/28 11:02:04;;;;;;;9.20;2.03;;;23.80;58.70;;;;;;5024679;28;20029;-58
2022/08/28 11:04:30;;;;;;;8.00;2.30;;;23.90;58.50;;;;;;5026031;28;20024;-57
2022/08/28 11:06:59;;;;;;;8.95;2.25;;;23.90;58.60;;;;;;5026465;28;20029;-58
2022/08/28 11:09:40;;;;;;;8.13;2.10;;;23.90;58.80;;;;;;5009099;28;20025;-57
2022/08/28 11:12:08;;;;;;;7.63;2.00;;;24.00;58.90;;;;;;5009465;28;20119;-57
2022/08/28 11:14:41;;;;;;;7.15;1.92;;;24.00;58.90;;;;;;5024322;28;20029;-57
2022/08/28 11:17:09;;;;;;;10.27;2.20;;;24.00;58.90;;;;;;5025164;28;20037;-58
2022/08/28 11:19:58;;;;;;;8.43;2.13;;;24.00;59.00;;;;;;5029105;28;20029;-58
2022/08/28 11:22:34;;;;;;;8.20;2.20;;;24.00;59.10;;;;;;5028434;28;20045;-57
2022/08/28 11:25:05;;;;;;;8.38;2.13;;;24.00;59.20;;;;;;5028126;28;20028;-57
2022/08/28 11:27:33;;;;;;;7.38;1.95;;;24.00;59.20;;;;;;5028517;28;20034;-58
2022/08/28 11:30:08;;;;;;;9.20;2.28;;;24.00;59.20;;;;;;5025163;28;20043;-57
2022/08/28 11:32:33;;;;;;;8.77;1.80;;;24.10;59.20;;;;;;5029363;28;20556;-58
2022/08/28 11:35:01;;;;;;;7.03;2.20;;;24.10;59.20;;;;;;5028221;28;20029;-57
2022/08/28 11:37:49;;;;;;;7.13;1.95;;;24.10;59.20;;;;;;5028429;28;20025;-57
2022/08/28 11:40:39;;;;;;;8.85;2.13;;;24.10;59.10;;;;;;5028274;28;20402;-57
2022/08/28 11:43:14;;;;;;;6.13;1.90;;;24.20;59.10;;;;;;5029555;28;20025;-57
2022/08/28 11:45:44;;;;;;;7.90;1.83;;;24.20;59.10;;;;;;5026909;28;20049;-57
2022/08/28 11:48:22;;;;;;;7.28;2.20;;;24.20;59.00;;;;;;5029149;28;20110;-57
2022/08/28 11:51:05;;;;;;;7.68;2.05;;;24.30;59.10;;;;;;5029381;28;20025;-57
2022/08/28 11:53:56;;;;;;;6.40;1.85;;;24.30;59.00;;;;;;5027631;28;20076;-58
2022/08/28 11:56:31;;;;;;;6.47;1.90;;;24.30;58.90;;;;;;5027468;28;20064;-57
2022/08/28 11:59:21;;;;;;;4.78;1.90;;;24.30;58.80;;;;;;5028479;28;20072;-58
2022/08/28 12:01:48;;;;;;;6.68;2.10;;;24.40;58.90;;;;;;5028729;28;20449;-58
2022/08/28 12:04:16;;;;;;;6.53;2.03;;;24.40;58.80;;;;;;5025796;28;20486;-58
2022/08/28 12:06:50;;;;;;;7.18;1.90;;;24.40;58.70;;;;;;5010701;28;20034;-57
2022/08/28 12:09:25;;;;;;;;;;;24.40;58.70;;;;;;5026184;28;20033;-57
2022/08/28 12:11:55;;;;;;;6.40;1.88;;;24.50;58.70;;;;;;5027323;28;20286;-58
2022/08/28 12:14:24;;;;;;;5.53;1.80;;;24.50;58.60;;;;;;5024067;28;20041;-57
2022/08/28 12:17:07;;;;;;;4.43;1.92;;;24.50;58.60;;;;;;5029079;28;20017;-57
2022/08/28 12:19:53;;;;;;;4.55;1.92;;;24.50;58.50;;;;;;5028558;28;20120;-58
2022/08/28 12:22:21;;;;;;;6.90;2.00;;;24.60;58.50;;;;;;5023769;28;20042;-57
2022/08/28 12:25:01;;;;;;;7.15;1.80;;;24.60;58.40;;;;;;5026239;28;20084;-57
2022/08/28 12:27:27;;;;;;;6.35;1.90;;;24.60;58.30;;;;;;5012097;28;20018;-58
2022/08/28 12:29:57;;;;;;;3.90;1.50;;;24.70;58.50;;;;;;5028497;28;20025;-57
2022/08/28 12:32:36;;;;;;;6.30;2.03;;;24.70;58.30;;;;;;5027651;28;20105;-58
2022/08/28 12:35:02;;;;;;;4.40;1.77;;;24.70;58.20;;;;;;5029249;28;20025;-58
2022/08/28 12:37:36;;;;;;;5.70;1.90;;;24.80;58.20;;;;;;5026830;28;20557;-57
2022/08/28 12:40:22;;;;;;;;;;;24.80;58.20;;;;;;5027619;28;20034;-58
2022/08/28 12:43:01;;;;;;;4.43;1.67;;;24.80;58.00;;;;;;5026534;28;20003;-57
2022/08/28 12:45:47;;;;;;;4.53;1.70;;;24.80;57.90;;;;;;5027521;28;20142;-58
2022/08/28 12:48:23;;;;;;;5.70;1.80;;;24.90;58.00;;;;;;5026813;28;20064;-58
2022/08/28 12:50:59;;;;;;;6.65;2.00;;;24.90;58.10;;;;;;5023137;28;20057;-57
2022/08/28 12:53:25;;;;;;;5.45;1.73;;;24.90;57.80;;;;;;5025647;28;20122;-57
2022/08/28 12:55:51;;;;;;;5.88;1.70;;;25.00;57.70;;;;;;5027100;28;20112;-57
2022/08/28 12:58:31;;;;;;;7.07;1.88;;;25.00;58.70;;;;;;5026530;28;20091;-58
2022/08/28 13:00:59;;;;;;;5.35;1.80;;;25.00;57.60;;;;;;5024088;28;20041;-58
2022/08/28 13:03:24;;;;;;;5.70;1.63;;;25.00;57.50;;;;;;5027494;28;20025;-58
2022/08/28 13:06:05;;;;;;;5.80;1.75;;;25.10;57.40;;;;;;5027188;28;20036;-57
2022/08/28 13:08:31;;;;;;;4.60;1.70;;;25.10;57.40;;;;;;5026261;28;20037;-58
2022/08/28 13:10:57;;;;;;;5.78;1.67;;;25.10;57.40;;;;;;5026199;28;20022;-58
2022/08/28 13:13:29;;;;;;;3.78;1.73;;;25.10;57.30;;;;;;5026687;28;20041;-57